createdAt,value
2022-08-11T00:01:31.968Z,4.03
2022-08-11T00:06:38.992Z,3.73
2022-08-11T00:11:50.012Z,3.63
2022-08-11T00:16:58.401Z,3.50
2022-08-11T00:22:06.343Z,3.50
2022-08-11T00:27:14.239Z,4.10
2022-08-11T00:32:20.172Z,3.30
2022-08-11T00:37:26.480Z,3.53
2022-08-11T00:42:57.192Z,3.67
2022-08-11T00:48:14.131Z,3.70
2022-08-11T00:53:49.522Z,3.80
2022-08-11T00:59:35.284Z,3.83
2022-08-11T01:04:55.779Z,3.93
2022-08-11T01:10:11.403Z,3.70
2022-08-11T01:15:34.329Z,5.23
2022-08-11T01:21:14.320Z,4.33
2022-08-11T01:26:31.266Z,4.20
2022-08-11T01:32:03.659Z,3.73
2022-08-11T01:37:32.819Z,3.90
2022-08-11T01:42:58.591Z,4.20
2022-08-11T01:48:38.200Z,4.60
2022-08-11T01:54:07.404Z,4.80
2022-08-11T01:59:18.801Z,4.80
2022-08-11T02:04:36.423Z,5.10
2022-08-11T02:09:56.604Z,5.70
2022-08-11T02:15:26.158Z,6.27
2022-08-11T02:21:11.797Z,6.13
2022-08-11T02:26:26.155Z,5.07
2022-08-11T02:32:14.213Z,4.53
2022-08-11T02:37:27.612Z,4.53
2022-08-11T02:42:36.429Z,4.70
2022-08-11T02:47:52.019Z,5.00
2022-08-11T02:53:20.845Z,4.33
2022-08-11T02:58:40.850Z,4.80
2022-08-11T03:03:52.852Z,4.93
2022-08-11T03:09:07.192Z,5.13
2022-08-11T03:14:33.225Z,5.20
2022-08-11T03:19:44.449Z,4.67
2022-08-11T03:24:59.266Z,4.87
2022-08-11T03:30:19.414Z,4.97
2022-08-11T03:35:26.183Z,4.67
2022-08-11T03:40:52.035Z,4.60
2022-08-11T03:46:09.398Z,4.90
2022-08-11T03:51:26.421Z,4.67
2022-08-11T03:56:52.649Z,4.50
2022-08-11T04:02:35.426Z,5.27
2022-08-11T04:07:49.563Z,4.57
2022-08-11T04:13:29.242Z,4.73
2022-08-11T04:18:54.227Z,5.10
2022-08-11T04:24:35.873Z,4.43
2022-08-11T04:29:35.883Z,5.63
2022-08-11T04:34:53.815Z,5.57
2022-08-11T04:40:21.384Z,5.47
2022-08-11T04:45:46.243Z,6.10
2022-08-11T04:51:28.864Z,7.83
2022-08-11T04:56:53.964Z,7.17
2022-08-11T05:02:02.399Z,7.23
2022-08-11T05:07:34.819Z,6.07
2022-08-11T05:12:55.034Z,6.77
2022-08-11T05:18:23.718Z,5.87
2022-08-11T05:23:34.193Z,6.13
2022-08-11T05:29:08.284Z,6.70
2022-08-11T05:34:30.974Z,5.30
2022-08-11T05:40:05.726Z,5.53
2022-08-11T05:45:58.671Z,4.50
2022-08-11T05:51:00.408Z,5.47
2022-08-11T05:56:22.258Z,4.70
2022-08-11T06:01:33.229Z,5.10
2022-08-11T06:06:45.533Z,5.87
2022-08-11T06:11:50.213Z,4.37
2022-08-11T06:16:59.564Z,3.80
2022-08-11T06:22:07.500Z,4.10
2022-08-11T06:27:14.529Z,4.57
2022-08-11T06:32:21.129Z,4.67
2022-08-11T06:37:59.022Z,3.93
2022-08-11T06:43:22.973Z,3.50
2022-08-11T06:48:28.886Z,3.73
2022-08-11T06:53:35.188Z,5.53
2022-08-11T06:59:00.140Z,5.83
2022-08-11T07:04:10.157Z,3.33
2022-08-11T07:09:42.221Z,5.27
2022-08-11T07:15:13.223Z,3.27
2022-08-11T07:20:37.393Z,3.90
2022-08-11T07:26:03.399Z,3.07
2022-08-11T07:31:29.568Z,3.20
2022-08-11T07:36:38.700Z,2.70
2022-08-11T07:41:45.611Z,2.60
2022-08-11T07:47:11.250Z,2.50
2022-08-11T07:52:32.835Z,2.55
2022-08-11T07:58:15.757Z,2.80
2022-08-11T08:03:23.637Z,3.22
2022-08-11T08:08:47.222Z,2.90
2022-08-11T08:14:12.042Z,2.62
2022-08-11T08:19:20.570Z,2.55
2022-08-11T08:24:26.857Z,2.60
2022-08-11T08:29:55.994Z,2.45
2022-08-11T08:35:02.927Z,2.00
2022-08-11T08:40:10.002Z,1.30
2022-08-11T08:45:18.884Z,1.85
2022-08-11T08:50:29.849Z,1.75
2022-08-11T08:55:35.937Z,1.70
2022-08-11T09:00:47.002Z,1.37
2022-08-11T09:05:55.367Z,1.60
2022-08-11T09:11:19.258Z,3.02
2022-08-11T09:16:26.097Z,1.42
2022-08-11T09:21:48.537Z,1.72
2022-08-11T09:26:59.070Z,1.50
2022-08-11T09:32:06.330Z,1.22
2022-08-11T09:37:55.660Z,1.20
2022-08-11T09:42:55.970Z,1.40
2022-08-11T09:48:03.592Z,1.22
2022-08-11T09:53:36.511Z,1.90
2022-08-11T09:58:42.919Z,1.20
2022-08-11T10:03:27.870Z,1.10
2022-08-11T10:08:35.423Z,1.50
2022-08-11T10:14:30.947Z,1.37
2022-08-11T10:19:10.507Z,1.60
2022-08-11T10:24:34.101Z,1.40
2022-08-11T10:29:59.724Z,1.45
2022-08-11T10:35:07.752Z,1.52
2022-08-11T10:40:18.704Z,1.32
2022-08-11T10:45:43.483Z,1.20
2022-08-11T10:51:07.832Z,1.82
2022-08-11T10:56:30.898Z,1.20
2022-08-11T11:01:44.229Z,1.42
2022-08-11T11:07:07.477Z,1.10
2022-08-11T11:12:51.444Z,1.00
2022-08-11T11:18:04.444Z,1.52
2022-08-11T11:23:12.987Z,1.10
2022-08-11T11:28:24.307Z,1.10
2022-08-11T11:33:32.703Z,1.45
2022-08-11T11:38:41.692Z,1.40
2022-08-11T11:43:47.345Z,1.40
2022-08-11T11:48:54.539Z,1.52
2022-08-11T11:54:02.703Z,1.55
2022-08-11T11:59:26.043Z,1.30
2022-08-11T12:04:31.595Z,1.47
2022-08-11T12:09:37.693Z,1.17
2022-08-11T12:14:43.236Z,1.20
2022-08-11T12:19:50.082Z,1.32
2022-08-11T12:25:13.851Z,1.45
2022-08-11T12:30:20.943Z,1.12
2022-08-11T12:35:27.021Z,2.90
2022-08-11T12:41:15.055Z,1.85
2022-08-11T12:46:00.656Z,1.40
2022-08-11T12:51:26.785Z,1.70
2022-08-11T12:56:52.677Z,1.65
2022-08-11T13:02:16.025Z,1.35
2022-08-11T13:07:21.893Z,1.10
2022-08-11T13:12:45.937Z,4.53
2022-08-11T13:17:53.192Z,1.17
2022-08-11T13:23:00.770Z,1.50
2022-08-11T13:28:06.740Z,1.35
2022-08-11T13:33:13.169Z,1.22
2022-08-11T13:38:22.328Z,1.10
2022-08-11T13:43:29.009Z,1.20
2022-08-11T13:48:34.672Z,1.37
2022-08-11T13:53:40.517Z,1.60
2022-08-11T13:58:46.996Z,1.30
2022-08-11T14:04:30.733Z,1.32
2022-08-11T14:09:03.374Z,0.98
2022-08-11T14:14:12.069Z,1.12
2022-08-11T14:19:21.398Z,1.00
2022-08-11T14:24:28.087Z,1.00
2022-08-11T14:29:45.268Z,0.90
2022-08-11T14:34:45.107Z,1.30
2022-08-11T14:39:58.230Z,1.55
2022-08-11T14:45:25.571Z,1.07
2022-08-11T14:50:34.593Z,1.05
2022-08-11T14:56:02.913Z,1.10
2022-08-11T15:01:10.257Z,1.47
2022-08-11T15:06:15.735Z,0.90
2022-08-11T15:11:41.631Z,2.35
2022-08-11T15:17:05.772Z,2.33
2022-08-11T15:22:29.894Z,1.80
2022-08-11T15:27:53.511Z,1.40
2022-08-11T15:33:17.658Z,1.40
2022-08-11T15:38:24.650Z,1.17
2022-08-11T15:43:53.515Z,1.27
2022-08-11T15:49:21.896Z,1.70
2022-08-11T15:54:30.848Z,1.20
2022-08-11T15:59:56.300Z,1.20
2022-08-11T16:05:04.623Z,1.10
2022-08-11T16:10:24.228Z,1.12
2022-08-11T16:15:50.075Z,1.00
2022-08-11T16:20:58.310Z,1.72
2022-08-11T16:27:10.553Z,1.27
2022-08-11T16:31:13.863Z,1.27
2022-08-11T16:36:38.231Z,1.17
2022-08-11T16:42:02.749Z,1.05
2022-08-11T16:47:10.666Z,1.10
2022-08-11T16:52:17.146Z,1.20
2022-08-11T16:57:43.322Z,1.10
2022-08-11T17:03:11.341Z,1.40
2022-08-11T17:08:37.545Z,1.10
2022-08-11T17:13:51.752Z,1.00
2022-08-11T17:19:11.732Z,1.00
2022-08-11T17:24:18.186Z,1.30
2022-08-11T17:29:26.702Z,1.17
2022-08-11T17:34:50.606Z,1.62
2022-08-11T17:39:57.795Z,1.20
2022-08-11T17:45:23.214Z,2.02
2022-08-11T17:50:29.657Z,1.70
2022-08-11T17:55:57.848Z,1.57
2022-08-11T18:01:09.100Z,1.82
2022-08-11T18:06:13.757Z,1.70
2022-08-11T18:12:06.525Z,2.12
2022-08-11T18:17:06.368Z,3.20
2022-08-11T18:22:30.773Z,2.37
2022-08-11T18:27:55.319Z,1.87
2022-08-11T18:34:03.446Z,2.67
2022-08-11T18:38:47.659Z,3.33
2022-08-11T18:44:12.717Z,3.40
2022-08-11T18:50:04.031Z,3.20
2022-08-11T18:55:05.690Z,3.10
2022-08-11T19:00:31.192Z,3.50
2022-08-11T19:06:35.810Z,3.87
2022-08-11T19:11:21.753Z,5.17
2022-08-11T19:16:47.569Z,5.65
2022-08-11T19:22:12.137Z,5.67
2022-08-11T19:27:37.346Z,3.50
2022-08-11T19:33:01.009Z,4.20
2022-08-11T19:38:23.877Z,2.40
2022-08-11T19:43:49.361Z,2.87
2022-08-11T19:49:15.245Z,2.72
2022-08-11T19:54:38.895Z,3.03
2022-08-11T20:00:02.463Z,4.15
2022-08-11T20:05:26.733Z,2.67
2022-08-11T20:10:53.360Z,3.37
2022-08-11T20:16:18.534Z,3.10
2022-08-11T20:21:43.595Z,3.03
2022-08-11T20:27:18.589Z,2.90
2022-08-11T20:32:35.641Z,2.67
2022-08-11T20:38:00.244Z,3.27
2022-08-11T20:44:08.137Z,2.97
2022-08-11T20:48:53.616Z,3.13
2022-08-11T20:54:17.936Z,2.97
2022-08-11T20:59:52.809Z,3.03
2022-08-11T21:05:09.531Z,3.63
2022-08-11T21:10:34.710Z,3.20
2022-08-11T21:16:01.485Z,4.90
2022-08-11T21:21:26.723Z,3.40
2022-08-11T21:26:52.345Z,2.40
2022-08-11T21:32:17.593Z,2.80
2022-08-11T21:37:41.498Z,2.53
2022-08-11T21:43:09.393Z,3.17
2022-08-11T21:48:32.681Z,2.60
2022-08-11T21:53:56.235Z,3.17
2022-08-11T21:59:20.641Z,3.23
2022-08-11T22:04:44.446Z,2.93
2022-08-11T22:10:40.265Z,2.40
2022-08-11T22:15:32.657Z,2.80
2022-08-11T22:20:58.581Z,2.80
2022-08-11T22:26:22.761Z,2.20
2022-08-11T22:31:46.989Z,3.10
2022-08-11T22:37:10.457Z,2.30
2022-08-11T22:42:35.545Z,2.70
2022-08-11T22:48:00.324Z,2.53
2022-08-11T22:53:23.403Z,3.17
2022-08-11T22:58:46.814Z,2.93
2022-08-11T23:04:12.222Z,2.77
2022-08-11T23:09:37.796Z,2.57
2022-08-11T23:15:01.688Z,3.23
2022-08-11T23:20:27.677Z,2.23
2022-08-11T23:25:53.717Z,2.53
2022-08-11T23:31:17.465Z,2.60
2022-08-11T23:36:47.036Z,2.60
2022-08-11T23:42:05.248Z,2.87
2022-08-11T23:47:28.586Z,3.20
2022-08-11T23:52:54.024Z,2.47
2022-08-11T23:58:17.701Z,2.90
